createdAt,value
2019-02-12T00:00:57.152Z,12.07
2019-02-12T00:05:56.800Z,7.20
2019-02-12T00:10:56.418Z,6.50
2019-02-12T00:15:56.130Z,11.70
2019-02-12T00:20:55.750Z,10.23
2019-02-12T00:25:55.439Z,4.50
2019-02-12T00:30:55.067Z,3.80
2019-02-12T00:35:54.724Z,7.37
2019-02-12T00:40:54.327Z,7.67
2019-02-12T00:45:53.970Z,7.93
2019-02-12T00:50:53.870Z,3.90
2019-02-12T00:55:53.507Z,0.73
2019-02-12T01:00:53.203Z,2.67
2019-02-12T01:05:52.850Z,3.17
2019-02-12T01:10:52.492Z,5.40
2019-02-12T01:15:52.130Z,6.77
2019-02-12T01:20:52.019Z,6.03
2019-02-12T01:25:51.658Z,2.53
2019-02-12T01:30:51.300Z,17.73
2019-02-12T01:35:51.194Z,1.80
2019-02-12T01:40:50.854Z,1.27
2019-02-12T01:45:50.553Z,5.77
2019-02-12T01:50:50.206Z,9.40
2019-02-12T01:55:49.843Z,17.20
2019-02-12T02:00:49.515Z,8.00
2019-02-12T02:05:49.167Z,1.33
2019-02-12T02:10:48.779Z,4.63
2019-02-12T02:15:48.664Z,1.70
2019-02-12T02:20:48.551Z,5.30
2019-02-12T02:25:48.444Z,4.90
2019-02-12T02:30:48.159Z,4.80
2019-02-12T02:35:47.772Z,6.53
2019-02-12T02:40:47.499Z,5.40
2019-02-12T02:45:47.229Z,1.50
2019-02-12T02:50:46.890Z,4.20
2019-02-12T02:55:46.534Z,5.60
2019-02-12T03:00:46.420Z,1.83
2019-02-12T03:05:46.135Z,4.93
2019-02-12T03:10:46.044Z,2.40
2019-02-12T03:15:45.687Z,9.27
2019-02-12T03:20:45.607Z,3.47
2019-02-12T03:25:45.235Z,6.70
2019-02-12T03:30:44.881Z,5.80
2019-02-12T03:35:44.529Z,6.07
2019-02-12T03:40:44.155Z,2.33
2019-02-12T03:45:43.831Z,5.80
2019-02-12T03:50:43.492Z,7.67
2019-02-12T03:55:43.153Z,3.73
2019-02-12T04:00:42.989Z,6.10
2019-02-12T04:05:43.618Z,3.63
2019-02-12T04:10:43.498Z,2.70
2019-02-12T04:15:43.223Z,2.10
2019-02-12T04:20:42.867Z,7.83
2019-02-12T04:25:42.498Z,1.93
2019-02-12T04:30:42.138Z,4.00
2019-02-12T04:35:41.796Z,6.13
2019-02-12T04:40:41.485Z,5.37
2019-02-12T04:45:41.175Z,4.17
2019-02-12T04:50:40.805Z,6.13
2019-02-12T04:55:40.451Z,1.13
2019-02-12T05:00:40.091Z,4.50
2019-02-12T05:05:39.806Z,2.37
2019-02-12T05:10:42.855Z,2.03
2019-02-12T05:15:42.496Z,1.30
2019-02-12T05:20:42.131Z,4.80
2019-02-12T05:25:41.762Z,6.03
2019-02-12T05:30:41.411Z,4.27
2019-02-12T05:35:41.051Z,4.77
2019-02-12T05:40:40.691Z,2.30
2019-02-12T05:45:40.343Z,2.53
2019-02-12T05:50:40.000Z,3.10
2019-02-12T05:55:39.723Z,3.63
2019-02-12T06:00:39.380Z,3.90
2019-02-12T06:05:39.273Z,3.23
2019-02-12T06:10:38.930Z,1.93
2019-02-12T06:15:38.570Z,11.53
2019-02-12T06:20:38.215Z,4.40
2019-02-12T06:25:37.855Z,9.17
2019-02-12T06:30:37.527Z,2.63
2019-02-12T06:35:37.172Z,2.90
2019-02-12T06:40:36.827Z,5.30
2019-02-12T06:45:36.442Z,3.27
2019-02-12T06:50:36.338Z,5.93
2019-02-12T06:55:36.212Z,0.80
2019-02-12T07:00:35.939Z,5.63
2019-02-12T07:05:35.572Z,5.10
2019-02-12T07:10:37.564Z,4.00
2019-02-12T07:15:54.303Z,5.30
2019-02-12T07:21:09.991Z,7.80
2019-02-12T07:26:44.672Z,7.67
2019-02-12T07:32:21.367Z,1.70
2019-02-12T07:38:17.123Z,4.97
2019-02-12T07:44:03.227Z,2.63
2019-02-12T07:49:38.504Z,3.27
2019-02-12T07:55:12.600Z,7.17
2019-02-12T08:00:27.099Z,5.67
2019-02-12T08:05:35.363Z,8.43
2019-02-12T08:10:58.258Z,3.40
2019-02-12T08:16:20.226Z,2.70
2019-02-12T08:21:51.697Z,12.43
2019-02-12T08:27:28.475Z,3.73
2019-02-12T08:32:40.838Z,10.23
2019-02-12T08:38:16.347Z,9.03
2019-02-12T08:43:48.580Z,6.20
2019-02-12T08:49:12.155Z,10.33
2019-02-12T08:54:43.255Z,2.10
2019-02-12T09:00:19.896Z,9.33
2019-02-12T09:06:16.091Z,6.10
2019-02-12T09:11:37.492Z,3.43
2019-02-12T09:17:03.488Z,6.53
2019-02-12T09:22:38.672Z,4.10
2019-02-12T09:28:33.707Z,23.00
2019-02-12T09:34:13.324Z,8.57
2019-02-12T09:39:23.935Z,8.53
2019-02-12T09:44:54.374Z,13.40
2019-02-12T09:50:21.115Z,3.10
2019-02-12T09:55:32.810Z,5.90
2019-02-12T10:01:12.186Z,10.33
2019-02-12T10:06:42.576Z,13.53
2019-02-12T10:12:44.485Z,8.10
2019-02-12T10:18:06.354Z,21.23
2019-02-12T10:23:53.912Z,14.57
2019-02-12T10:29:43.836Z,2.83
2019-02-12T10:34:43.535Z,8.33
2019-02-12T10:39:43.192Z,11.47
2019-02-12T10:44:42.840Z,7.30
2019-02-12T10:49:42.612Z,6.67
2019-02-12T10:54:42.267Z,14.07
2019-02-12T10:59:41.931Z,9.50
2019-02-12T11:04:41.743Z,9.27
2019-02-12T11:09:41.415Z,14.80
2019-02-12T11:14:41.093Z,14.47
2019-02-12T11:19:40.748Z,5.87
2019-02-12T11:24:40.423Z,9.90
2019-02-12T11:29:40.091Z,11.10
2019-02-12T11:34:39.839Z,12.63
2019-02-12T11:39:39.483Z,3.40
2019-02-12T11:44:39.099Z,5.63
2019-02-12T11:49:38.755Z,17.03
2019-02-12T11:54:43.605Z,10.23
2019-02-12T11:59:40.091Z,4.97
2019-02-12T12:04:39.747Z,6.97
2019-02-12T12:09:39.938Z,3.67
2019-02-12T12:14:39.646Z,8.40
2019-02-12T12:19:39.567Z,3.07
2019-02-12T12:24:39.195Z,7.97
2019-02-12T12:29:38.847Z,4.97
2019-02-12T12:34:38.491Z,8.13
2019-02-12T12:39:39.336Z,6.30
2019-02-12T12:44:38.949Z,3.30
2019-02-12T12:49:38.858Z,8.10
2019-02-12T12:54:38.510Z,3.13
2019-02-12T12:59:38.150Z,6.07
2019-02-12T13:04:38.023Z,5.00
2019-02-12T13:09:38.649Z,8.17
2019-02-12T13:14:38.343Z,5.30
2019-02-12T13:19:37.978Z,5.63
2019-02-12T13:24:37.610Z,8.77
2019-02-12T13:29:37.411Z,4.10
2019-02-12T13:34:37.059Z,2.90
2019-02-12T13:39:36.699Z,4.53
2019-02-12T13:44:36.836Z,2.43
2019-02-12T13:49:36.514Z,13.20
2019-02-12T13:54:36.158Z,5.23
2019-02-12T13:59:35.803Z,4.37
2019-02-12T14:04:35.919Z,1.23
2019-02-12T14:09:35.560Z,4.93
2019-02-12T14:14:35.241Z,1.33
2019-02-12T14:19:34.914Z,2.47
2019-02-12T14:24:34.667Z,1.80
2019-02-12T14:29:34.303Z,8.17
2019-02-12T14:34:33.957Z,5.10
2019-02-12T14:39:33.591Z,3.77
2019-02-12T14:44:33.530Z,2.10
2019-02-12T14:49:33.657Z,5.33
2019-02-12T14:54:33.357Z,5.03
2019-02-12T14:59:33.071Z,1.90
2019-02-12T15:04:32.987Z,6.37
2019-02-12T15:09:32.619Z,8.73
2019-02-12T15:14:32.427Z,5.47
2019-02-12T15:19:32.079Z,8.43
2019-02-12T15:24:31.758Z,7.23
2019-02-12T15:29:31.415Z,4.47
2019-02-12T15:34:31.064Z,4.00
2019-02-12T15:39:30.798Z,6.87
2019-02-12T15:44:30.598Z,7.80
2019-02-12T15:49:30.259Z,6.93
2019-02-12T15:54:29.887Z,5.10
2019-02-12T15:59:31.348Z,5.60
2019-02-12T16:04:30.851Z,4.50
2019-02-12T16:09:35.425Z,5.03
2019-02-12T16:14:32.062Z,4.60
2019-02-12T16:19:32.052Z,4.13
2019-02-12T16:24:31.831Z,3.73
2019-02-12T16:29:31.494Z,8.67
2019-02-12T16:34:31.138Z,5.13
2019-02-12T16:39:30.860Z,2.73
2019-02-12T16:44:30.520Z,2.60
2019-02-12T16:49:30.788Z,4.20
2019-02-12T16:54:30.689Z,6.47
2019-02-12T16:59:30.419Z,6.83
2019-02-12T17:04:32.143Z,5.90
2019-02-12T17:09:31.807Z,11.90
2019-02-12T17:14:31.440Z,6.70
2019-02-12T17:19:31.310Z,8.33
2019-02-12T17:24:30.970Z,8.03
2019-02-12T17:29:32.727Z,3.93
2019-02-12T17:34:32.440Z,6.57
2019-02-12T17:39:32.121Z,3.03
2019-02-12T17:44:31.767Z,10.17
2019-02-12T17:49:31.981Z,4.30
2019-02-12T17:54:32.613Z,3.47
2019-02-12T17:59:32.503Z,12.63
2019-02-12T18:04:32.430Z,4.50
2019-02-12T18:09:32.259Z,6.80
2019-02-12T18:14:31.913Z,6.80
2019-02-12T18:19:31.568Z,12.30
2019-02-12T18:24:31.546Z,8.23
2019-02-12T18:29:31.442Z,7.37
2019-02-12T18:34:31.354Z,13.47
2019-02-12T18:39:31.249Z,8.80
2019-02-12T18:44:31.213Z,15.10
2019-02-12T18:49:30.982Z,8.20
2019-02-12T18:54:30.635Z,8.23
2019-02-12T18:59:30.347Z,5.50
2019-02-12T19:04:30.062Z,7.50
2019-02-12T19:09:31.222Z,6.83
2019-02-12T19:14:34.087Z,14.07
2019-02-12T19:19:33.759Z,26.37
2019-02-12T19:24:33.414Z,10.90
2019-02-12T19:29:33.059Z,12.60
2019-02-12T19:34:32.716Z,15.30
2019-02-12T19:39:32.402Z,13.60
2019-02-12T19:44:34.318Z,13.60
2019-02-12T19:49:33.973Z,14.60
2019-02-12T19:54:33.763Z,15.00
2019-02-12T19:59:33.504Z,13.83
2019-02-12T20:04:33.146Z,11.40
2019-02-12T20:09:33.040Z,16.33
2019-02-12T20:14:39.391Z,12.07
2019-02-12T20:19:34.268Z,17.87
2019-02-12T20:24:33.944Z,16.53
2019-02-12T20:29:33.831Z,18.83
2019-02-12T20:34:33.491Z,17.37
2019-02-12T20:39:33.139Z,16.50
2019-02-12T20:44:32.785Z,17.77
2019-02-12T20:49:35.408Z,21.42
2019-02-12T20:54:42.601Z,17.43
2019-02-12T20:59:42.560Z,15.80
2019-02-12T21:04:42.499Z,19.90
2019-02-12T21:09:42.204Z,22.13
2019-02-12T21:14:41.919Z,20.27
2019-02-12T21:19:41.656Z,20.73
2019-02-12T21:24:41.597Z,23.97
2019-02-12T21:29:41.262Z,21.47
2019-02-12T21:34:40.939Z,17.80
2019-02-12T21:39:44.046Z,15.83
2019-02-12T21:44:43.789Z,20.27
2019-02-12T21:49:43.440Z,21.80
2019-02-12T21:54:43.081Z,19.03
2019-02-12T21:59:42.766Z,24.73
2019-02-12T22:04:42.519Z,24.20
2019-02-12T22:09:42.171Z,24.60
2019-02-12T22:14:42.349Z,23.37
2019-02-12T22:19:42.323Z,22.23
2019-02-12T22:24:41.958Z,23.73
2019-02-12T22:30:01.121Z,23.77
2019-02-12T22:35:14.550Z,27.80
2019-02-12T22:40:26.299Z,23.90
2019-02-12T22:45:38.031Z,23.73
2019-02-12T22:50:50.295Z,18.00
2019-02-12T22:56:01.809Z,24.13
2019-02-12T23:01:12.159Z,23.10
2019-02-12T23:06:32.127Z,28.73
2019-02-12T23:11:45.919Z,36.07
2019-02-12T23:16:58.078Z,21.90
2019-02-12T23:22:09.431Z,18.67
2019-02-12T23:27:20.771Z,20.63
2019-02-12T23:32:32.634Z,28.80
2019-02-12T23:37:44.634Z,21.87
2019-02-12T23:42:56.519Z,29.50
2019-02-12T23:48:08.427Z,27.20
2019-02-12T23:53:20.487Z,26.87
2019-02-12T23:58:39.028Z,19.17
